createdAt,value
2022-11-03T00:01:18.024Z,86.77
2022-11-03T00:06:19.731Z,86.11
2022-11-03T00:11:21.465Z,87.20
2022-11-03T00:16:23.126Z,86.79
2022-11-03T00:21:24.817Z,87.93
2022-11-03T00:26:27.735Z,88.07
2022-11-03T00:31:30.751Z,89.03
2022-11-03T00:36:34.455Z,89.80
2022-11-03T00:41:36.201Z,90.60
2022-11-03T00:46:37.891Z,90.82
2022-11-03T00:51:39.573Z,90.27
2022-11-03T00:56:41.697Z,89.76
2022-11-03T01:01:48.010Z,90.43
2022-11-03T01:06:50.731Z,90.06
2022-11-03T01:12:12.799Z,88.91
2022-11-03T01:17:18.313Z,89.36
2022-11-03T01:22:20.233Z,89.59
2022-11-03T01:27:23.087Z,88.25
2022-11-03T01:32:24.739Z,89.31
2022-11-03T01:37:26.745Z,89.05
2022-11-03T01:42:28.413Z,88.28
2022-11-03T01:47:32.228Z,89.25
2022-11-03T01:52:52.114Z,88.73
2022-11-03T01:58:02.859Z,89.47
2022-11-03T02:03:04.890Z,88.33
2022-11-03T02:13:21.185Z,88.95
2022-11-03T02:18:26.319Z,89.13
2022-11-03T02:23:47.921Z,89.53
2022-11-03T02:28:49.673Z,89.67
2022-11-03T02:34:06.702Z,89.88
2022-11-03T02:39:29.103Z,89.51
2022-11-03T02:44:32.457Z,89.24
2022-11-03T02:49:46.501Z,90.27
2022-11-03T02:54:48.255Z,88.45
2022-11-03T02:59:57.025Z,88.69
2022-11-03T03:05:00.452Z,87.70
2022-11-03T03:10:12.836Z,87.65
2022-11-03T03:15:14.626Z,88.20
2022-11-03T03:20:41.301Z,91.06
2022-11-03T03:25:47.927Z,92.70
2022-11-03T03:30:49.578Z,93.08
2022-11-03T03:35:51.379Z,90.44
2022-11-03T03:40:54.306Z,92.24
2022-11-03T03:45:57.467Z,91.86
2022-11-03T03:50:59.150Z,92.78
2022-11-03T03:56:00.850Z,93.04
2022-11-03T04:01:02.756Z,90.92
2022-11-03T04:06:04.598Z,91.87
2022-11-03T04:11:24.839Z,92.12
2022-11-03T04:16:45.296Z,92.51
2022-11-03T04:22:05.657Z,92.63
2022-11-03T04:27:29.295Z,92.69
2022-11-03T04:32:30.997Z,93.16
2022-11-03T04:37:32.674Z,93.14
2022-11-03T04:42:34.504Z,92.91
2022-11-03T04:47:36.160Z,93.77
2022-11-03T04:52:37.845Z,94.67
2022-11-03T04:57:40.597Z,94.64
2022-11-03T05:02:42.830Z,93.98
2022-11-03T05:07:44.525Z,93.77
2022-11-03T05:12:49.553Z,95.12
2022-11-03T05:17:51.373Z,95.37
2022-11-03T05:22:53.058Z,95.91
2022-11-03T05:27:54.719Z,94.59
2022-11-03T05:32:56.767Z,94.95
2022-11-03T05:37:58.848Z,94.56
2022-11-03T05:43:01.518Z,94.76
2022-11-03T05:48:05.864Z,94.21
2022-11-03T05:53:16.669Z,93.87
2022-11-03T05:58:37.226Z,93.42
2022-11-03T06:03:38.946Z,93.99
2022-11-03T06:08:43.204Z,94.15
2022-11-03T06:13:47.675Z,94.25
2022-11-03T06:18:49.346Z,94.39
2022-11-03T06:23:51.195Z,93.74
2022-11-03T06:28:53.001Z,93.12
2022-11-03T06:33:55.204Z,92.51
2022-11-03T06:38:57.918Z,91.68
2022-11-03T06:44:01.823Z,90.39
2022-11-03T06:49:05.700Z,90.14
2022-11-03T06:54:09.036Z,89.22
2022-11-03T06:59:10.858Z,88.88
2022-11-03T07:04:18.791Z,88.03
2022-11-03T07:09:22.548Z,87.18
2022-11-03T07:14:25.297Z,86.28
2022-11-03T07:19:29.491Z,86.54
2022-11-03T07:24:32.876Z,85.57
2022-11-03T07:29:34.554Z,86.13
2022-11-03T07:34:36.176Z,85.62
2022-11-03T07:39:38.224Z,82.81
2022-11-03T07:44:39.853Z,83.06
2022-11-03T07:49:41.515Z,79.95
2022-11-03T07:54:43.158Z,81.24
2022-11-03T07:59:49.364Z,79.61
2022-11-03T08:04:51.023Z,77.92
2022-11-03T08:09:52.696Z,78.66
2022-11-03T08:14:54.318Z,77.88
2022-11-03T08:19:55.966Z,77.60
2022-11-03T08:24:57.635Z,77.42
2022-11-03T08:29:59.310Z,74.72
2022-11-03T08:35:00.939Z,72.34
2022-11-03T08:40:02.624Z,68.04
2022-11-03T08:45:04.580Z,66.52
2022-11-03T08:50:06.707Z,64.53
2022-11-03T08:55:08.878Z,64.36
2022-11-03T09:00:11.369Z,64.55
2022-11-03T09:05:13.080Z,63.87
2022-11-03T09:15:19.308Z,53.30
2022-11-03T09:20:21.141Z,49.54
2022-11-03T09:25:22.826Z,53.26
2022-11-03T09:30:24.479Z,50.98
2022-11-03T09:35:26.156Z,48.84
2022-11-03T09:40:27.844Z,43.05
2022-11-03T09:45:29.590Z,41.21
2022-11-03T09:50:31.463Z,40.18
2022-11-03T09:55:33.254Z,41.22
2022-11-03T10:00:34.929Z,39.69
2022-11-03T10:05:36.567Z,38.35
2022-11-03T10:10:38.775Z,40.33
2022-11-03T10:15:42.082Z,41.05
2022-11-03T10:20:43.773Z,37.07
2022-11-03T10:25:45.780Z,33.05
2022-11-03T10:31:17.025Z,30.39
2022-11-03T10:36:18.596Z,30.93
2022-11-03T10:41:20.904Z,37.31
2022-11-03T10:46:44.643Z,42.97
2022-11-03T10:51:45.470Z,44.77
2022-11-03T10:56:47.207Z,47.71
2022-11-03T11:01:49.001Z,49.17
2022-11-03T11:06:51.067Z,49.85
2022-11-03T11:12:19.115Z,52.46
2022-11-03T11:17:41.571Z,53.76
2022-11-03T11:22:43.450Z,50.11
2022-11-03T11:27:44.936Z,49.05
2022-11-03T11:32:46.551Z,48.32
2022-11-03T11:37:48.249Z,47.45
2022-11-03T11:43:10.972Z,49.13
2022-11-03T11:48:19.420Z,49.09
2022-11-03T11:53:24.008Z,45.84
2022-11-03T11:58:32.072Z,43.72
2022-11-03T12:03:37.726Z,46.88
2022-11-03T12:08:39.532Z,50.56
2022-11-03T12:13:48.148Z,53.44
2022-11-03T12:18:50.778Z,54.88
2022-11-03T12:23:52.499Z,56.95
2022-11-03T12:28:54.192Z,57.55
2022-11-03T12:33:55.826Z,57.29
2022-11-03T12:38:57.461Z,56.52
2022-11-03T12:43:59.117Z,55.88
2022-11-03T12:49:00.799Z,56.55
2022-11-03T12:54:02.476Z,57.22
2022-11-03T12:59:04.154Z,57.35
2022-11-03T13:04:06.139Z,59.67
2022-11-03T13:09:07.797Z,61.36
2022-11-03T13:14:09.505Z,63.30
2022-11-03T13:19:11.166Z,65.72
2022-11-03T13:24:12.869Z,66.74
2022-11-03T13:29:14.561Z,66.63
2022-11-03T13:34:16.191Z,66.40
2022-11-03T13:39:17.890Z,67.46
2022-11-03T13:44:19.583Z,68.20
2022-11-03T13:49:59.257Z,68.85
2022-11-03T14:00:06.312Z,68.28
2022-11-03T14:05:14.220Z,69.25
2022-11-03T14:10:15.856Z,67.00
2022-11-03T14:15:17.914Z,67.21
2022-11-03T14:20:19.646Z,67.39
2022-11-03T14:25:21.467Z,68.81
2022-11-03T14:30:23.100Z,69.76
2022-11-03T14:35:24.766Z,70.77
2022-11-03T14:40:45.011Z,71.13
2022-11-03T14:45:46.760Z,71.93
2022-11-03T14:50:48.503Z,72.81
2022-11-03T14:55:50.244Z,71.34
2022-11-03T15:00:51.979Z,73.85
2022-11-03T15:05:55.513Z,74.98
2022-11-03T15:10:57.144Z,75.27
2022-11-03T15:15:58.826Z,71.98
2022-11-03T15:21:00.783Z,70.09
2022-11-03T15:26:02.453Z,70.81
2022-11-03T15:31:04.110Z,75.70
2022-11-03T15:36:07.516Z,76.30
2022-11-03T15:41:19.358Z,76.37
2022-11-03T15:46:21.011Z,76.09
2022-11-03T15:51:22.726Z,76.09
2022-11-03T15:56:24.387Z,74.51
2022-11-03T16:01:26.121Z,74.34
2022-11-03T16:06:53.941Z,75.30
2022-11-03T16:11:49.509Z,75.58
2022-11-03T16:16:51.159Z,73.99
2022-11-03T16:21:52.840Z,73.57
2022-11-03T16:26:54.524Z,73.73
2022-11-03T16:31:57.821Z,75.02
2022-11-03T16:37:00.721Z,76.83
2022-11-03T16:42:03.317Z,74.84
2022-11-03T16:47:05.351Z,75.63
2022-11-03T16:52:07.838Z,76.69
2022-11-03T16:57:09.512Z,77.85
2022-11-03T17:02:16.114Z,76.73
2022-11-03T17:07:18.243Z,75.65
2022-11-03T17:12:19.935Z,75.79
2022-11-03T17:17:21.608Z,76.90
2022-11-03T17:22:23.280Z,76.49
2022-11-03T17:27:49.053Z,75.97
2022-11-03T17:32:55.815Z,77.28
2022-11-03T17:37:57.470Z,77.89
2022-11-03T17:42:59.145Z,78.02
2022-11-03T17:48:00.783Z,78.13
2022-11-03T17:53:02.473Z,78.67
2022-11-03T17:58:04.833Z,80.18
2022-11-03T18:03:08.944Z,80.17
2022-11-03T18:08:11.305Z,79.20
2022-11-03T18:13:20.115Z,78.26
2022-11-03T18:18:33.198Z,78.92
2022-11-03T18:23:34.960Z,79.10
2022-11-03T18:28:36.612Z,78.15
2022-11-03T18:33:38.233Z,76.96
2022-11-03T18:38:39.915Z,76.24
2022-11-03T18:43:41.556Z,77.92
2022-11-03T18:48:43.194Z,77.21
2022-11-03T18:53:44.970Z,76.89
2022-11-03T18:58:46.653Z,77.77
2022-11-03T19:03:48.439Z,77.33
2022-11-03T19:08:50.678Z,77.99
2022-11-03T19:13:52.351Z,77.65
2022-11-03T19:18:54.014Z,78.53
2022-11-03T19:23:58.480Z,77.74
2022-11-03T19:29:01.953Z,76.40
2022-11-03T19:34:03.627Z,75.47
2022-11-03T19:39:33.224Z,75.52
2022-11-03T19:49:36.473Z,76.29
2022-11-03T19:54:38.262Z,79.04
2022-11-03T19:59:41.442Z,77.69
2022-11-03T20:04:46.663Z,81.47
2022-11-03T20:09:48.335Z,81.84
2022-11-03T20:14:50.039Z,81.42
2022-11-03T20:19:53.230Z,79.54
2022-11-03T20:24:57.547Z,78.26
2022-11-03T20:29:59.254Z,79.13
2022-11-03T20:37:52.243Z,77.87
2022-11-03T20:42:54.857Z,77.82
2022-11-03T20:47:56.794Z,77.68
2022-11-03T20:53:00.427Z,77.92
2022-11-03T20:58:02.341Z,75.75
2022-11-03T21:03:10.559Z,76.87
2022-11-03T21:08:13.982Z,79.89
2022-11-03T21:13:16.385Z,77.15
2022-11-03T21:18:36.802Z,81.35
2022-11-03T21:23:39.966Z,79.54
2022-11-03T21:28:41.876Z,77.88
2022-11-03T21:33:43.727Z,71.80
2022-11-03T21:38:46.870Z,72.07
2022-11-03T21:44:07.078Z,71.08
2022-11-03T21:49:27.685Z,72.08
2022-11-03T21:54:43.265Z,72.50
2022-11-03T21:59:45.142Z,72.91
2022-11-03T22:04:46.919Z,74.61
2022-11-03T22:09:50.128Z,75.39
2022-11-03T22:15:10.374Z,76.72
2022-11-03T22:20:30.692Z,78.36
2022-11-03T22:25:52.292Z,79.60
2022-11-03T22:31:12.568Z,82.48
2022-11-03T22:36:23.364Z,83.49
2022-11-03T22:41:45.001Z,82.57
2022-11-03T22:46:46.748Z,83.71
2022-11-03T22:51:48.517Z,83.71
2022-11-03T22:56:51.948Z,84.75
2022-11-03T23:01:54.047Z,85.21
2022-11-03T23:06:56.008Z,84.47
2022-11-03T23:11:59.148Z,83.81
2022-11-03T23:17:00.915Z,84.23
2022-11-03T23:22:02.736Z,84.52
2022-11-03T23:27:05.905Z,84.39
2022-11-03T23:32:07.696Z,83.58
2022-11-03T23:37:09.513Z,82.25
2022-11-03T23:42:12.643Z,83.65
2022-11-03T23:47:32.971Z,81.99
2022-11-03T23:52:34.759Z,85.41
2022-11-03T23:57:56.344Z,85.50
